| time (UTC) | temp F | wind direction | speed knots | gust knots | rain 1hr in | rain 24hr in | rain mn in | humidity % | barometer mb |
| 20260504000431 | 77 | 0 | 0.0 | 0.0 | 0.00 | 0.00 | 0.00 | 40 | 1016.1 |
| 20260503235927 | 77 | 0 | 0.0 | 0.0 | 0.00 | 0.00 | 0.00 | 39 | 1016.2 |
| 20260503235427 | 77 | 0 | 0.0 | 0.0 | 0.00 | 0.00 | 0.00 | 39 | 1016.2 |
| 20260503234927 | 77 | 0 | 0.0 | 0.0 | 0.00 | 0.00 | 0.00 | 40 | 1016.3 |
| 20260503234428 | 77 | 0 | 0.0 | 0.0 | 0.00 | 0.00 | 0.00 | 40 | 1016.3 |
| 20260503233927 | 77 | 0 | 0.0 | 0.0 | 0.00 | 0.00 | 0.00 | 40 | 1016.3 |
| 20260503233427 | 77 | 0 | 0.0 | 0.0 | 0.00 | 0.00 | 0.00 | 41 | 1016.4 |
| 20260503232927 | 77 | 0 | 0.0 | 0.0 | 0.00 | 0.00 | 0.00 | 40 | 1016.4 |
| 20260503232427 | 77 | 0 | 0.0 | 0.0 | 0.00 | 0.00 | 0.00 | 40 | 1016.4 |
| 20260503231928 | 78 | 0 | 0.0 | 0.0 | 0.00 | 0.00 | 0.00 | 39 | 1016.5 |
| 20260503231428 | 78 | 0 | 0.0 | 0.0 | 0.00 | 0.00 | 0.00 | 39 | 1016.5 |
| 20260503230928 | 78 | 0 | 0.0 | 0.0 | 0.00 | 0.00 | 0.00 | 40 | 1016.5 |
| 20260503230428 | 78 | 0 | 0.0 | 7.8 | 0.00 | 0.00 | 0.00 | 39 | 1016.5 |
| 20260503225927 | 78 | 0 | 0.0 | 7.8 | 0.00 | 0.00 | 0.00 | 38 | 1016.5 |
| 20260503225427 | 78 | 0 | 0.0 | 4.3 | 0.00 | 0.00 | 0.00 | 40 | 1016.6 |
| 20260503224928 | 78 | 169 | 0.9 | 4.3 | 0.00 | 0.00 | 0.00 | 39 | 1016.8 |
| 20260503224428 | 78 | 164 | 0.9 | 4.3 | 0.00 | 0.00 | 0.00 | 37 | 1016.7 |
| 20260503223927 | 78 | 165 | 0.9 | 4.3 | 0.00 | 0.00 | 0.00 | 36 | 1016.8 |
| 20260503223428 | 78 | 166 | 0.9 | 6.1 | 0.00 | 0.00 | 0.00 | 36 | 1016.8 |
| 20260503222928 | 78 | 164 | 0.9 | 6.1 | 0.00 | 0.00 | 0.00 | 36 | 1016.7 |
| 20260503221928 | 79 | 169 | 1.7 | 8.7 | 0.00 | 0.00 | 0.00 | 35 | 1016.9 |
| 20260503221428 | 79 | 156 | 1.7 | 8.7 | 0.00 | 0.00 | 0.00 | 34 | 1016.8 |
| 20260503220927 | 79 | 152 | 2.6 | 7.8 | 0.00 | 0.00 | 0.00 | 34 | 1017.0 |
| 20260503220429 | 79 | 155 | 3.5 | 7.0 | 0.00 | 0.00 | 0.00 | 36 | 1017.0 |
| 20260503215927 | 79 | 157 | 2.6 | 8.7 | 0.00 | 0.00 | 0.00 | 34 | 1017.0 |
| 20260503215428 | 79 | 162 | 2.6 | 8.7 | 0.00 | 0.00 | 0.00 | 35 | 1017.0 |
| 20260503214428 | 79 | 153 | 4.3 | 8.7 | 0.00 | 0.00 | 0.00 | 34 | 1017.3 |
| 20260503212929 | 79 | 164 | 2.6 | 8.7 | 0.00 | 0.00 | 0.00 | 34 | 1017.5 |
| 20260503212428 | 79 | 164 | 2.6 | 9.6 | 0.00 | 0.00 | 0.00 | 36 | 1017.6 |
| 20260503211428 | 80 | 162 | 1.7 | 7.0 | 0.00 | 0.00 | 0.00 | 36 | 1017.9 |
| 20260503210928 | 80 | 162 | 2.6 | 7.8 | 0.00 | 0.00 | 0.00 | 35 | 1018.0 |
| 20260503210427 | 80 | 162 | 2.6 | 7.8 | 0.00 | 0.00 | 0.00 | 34 | 1018.0 |
| 20260503205928 | 80 | 166 | 0.9 | 5.2 | 0.00 | 0.00 | 0.00 | 35 | 1018.0 |
| 20260503203928 | 80 | 162 | 2.6 | 7.8 | 0.00 | 0.00 | 0.00 | 33 | 1018.3 |
| 20260503203429 | 80 | 173 | 1.7 | 7.0 | 0.00 | 0.00 | 0.00 | 34 | 1018.5 |
| 20260503202428 | 80 | 194 | 1.7 | 12.2 | 0.00 | 0.00 | 0.00 | 36 | 1018.6 |
| 20260503201928 | 80 | 196 | 1.7 | 6.1 | 0.00 | 0.00 | 0.00 | 35 | 1018.6 |
| 20260503201427 | 80 | 170 | 1.7 | 8.7 | 0.00 | 0.00 | 0.00 | 34 | 1018.9 |
| 20260503200427 | 79 | 167 | 1.7 | 7.0 | 0.00 | 0.00 | 0.00 | 34 | 1019.0 |
| 20260503195927 | 80 | 153 | 1.7 | 7.0 | 0.00 | 0.00 | 0.00 | 36 | 1018.9 |
| 20260503195428 | 79 | 163 | 1.7 | 7.0 | 0.00 | 0.00 | 0.00 | 33 | 1019.0 |
| 20260503194927 | 80 | 183 | 1.7 | 6.1 | 0.00 | 0.00 | 0.00 | 34 | 1019.2 |
| 20260503193929 | 79 | 161 | 2.6 | 6.1 | 0.00 | 0.00 | 0.00 | 32 | 1019.3 |
| 20260503192928 | 79 | 152 | 2.6 | 7.8 | 0.00 | 0.00 | 0.00 | 33 | 1019.4 |
| 20260503192427 | 79 | 152 | 3.5 | 7.8 | 0.00 | 0.00 | 0.00 | 33 | 1019.4 |
| 20260503191928 | 79 | 151 | 2.6 | 6.1 | 0.00 | 0.00 | 0.00 | 31 | 1019.4 |
| 20260503191428 | 79 | 149 | 1.7 | 6.1 | 0.00 | 0.00 | 0.00 | 35 | 1019.5 |
| 20260503190929 | 79 | 158 | 1.7 | 7.0 | 0.00 | 0.00 | 0.00 | 36 | 1019.7 |
| 20260503190429 | 79 | 150 | 1.7 | 7.0 | 0.00 | 0.00 | 0.00 | 35 | 1019.7 |
| 20260503185928 | 79 | 150 | 1.7 | 6.1 | 0.00 | 0.00 | 0.00 | 34 | 1019.8 |
| 20260503185428 | 79 | 154 | 2.6 | 7.0 | 0.00 | 0.00 | 0.00 | 36 | 1020.0 |
| 20260503184930 | 79 | 156 | 2.6 | 7.0 | 0.00 | 0.00 | 0.00 | 35 | 1020.0 |
| 20260503184428 | 79 | 167 | 1.7 | 7.8 | 0.00 | 0.00 | 0.00 | 38 | 1020.2 |
| 20260503183929 | 79 | 205 | 0.9 | 7.8 | 0.00 | 0.00 | 0.00 | 37 | 1020.1 |
| 20260503183428 | 78 | 202 | 0.9 | 7.0 | 0.00 | 0.00 | 0.00 | 38 | 1020.2 |
| 20260503182928 | 78 | 168 | 1.7 | 7.0 | 0.00 | 0.00 | 0.00 | 38 | 1020.4 |
| 20260503182428 | 79 | 149 | 2.6 | 7.0 | 0.00 | 0.00 | 0.00 | 38 | 1020.5 |
| 20260503181928 | 78 | 152 | 2.6 | 7.0 | 0.00 | 0.00 | 0.00 | 38 | 1020.6 |
| 20260503181429 | 78 | 157 | 2.6 | 6.1 | 0.00 | 0.00 | 0.00 | 41 | 1020.7 |
| 20260503180429 | 78 | 164 | 1.7 | 9.6 | 0.00 | 0.00 | 0.00 | 39 | 1020.8 |
| 20260503175928 | 78 | 196 | 1.7 | 4.3 | 0.00 | 0.00 | 0.00 | 41 | 1020.9 |
| 20260503174927 | 78 | 176 | 1.7 | 7.0 | 0.00 | 0.00 | 0.00 | 41 | 1021.0 |
| 20260503174428 | 78 | 212 | 0.9 | 7.0 | 0.00 | 0.00 | 0.00 | 41 | 1021.1 |
| 20260503173928 | 78 | 225 | 1.7 | 7.8 | 0.00 | 0.00 | 0.00 | 40 | 1021.2 |
| 20260503173428 | 78 | 212 | 1.7 | 7.8 | 0.00 | 0.00 | 0.00 | 41 | 1021.4 |
| 20260503172928 | 77 | 188 | 2.6 | 8.7 | 0.00 | 0.00 | 0.00 | 40 | 1021.4 |
| 20260503172427 | 77 | 191 | 2.6 | 8.7 | 0.00 | 0.00 | 0.00 | 42 | 1021.6 |
| 20260503171930 | 77 | 200 | 0.9 | 7.8 | 0.00 | 0.00 | 0.00 | 43 | 1021.6 |
| 20260503171427 | 77 | 223 | 1.7 | 7.0 | 0.00 | 0.00 | 0.00 | 41 | 1021.6 |
| 20260503170929 | 77 | 225 | 1.7 | 7.0 | 0.00 | 0.00 | 0.00 | 46 | 1021.7 |
| 20260503150428 | 71 | 220 | 0.9 | 6.1 | 0.00 | 0.00 | 0.00 | 56 | 1022.5 |
| 20260503130928 | 58 | 0 | 0.0 | 2.6 | 0.00 | 0.00 | 0.00 | 81 | 1021.7 |
| 20260503130428 | 57 | 250 | 0.9 | 2.6 | 0.00 | 0.00 | 0.00 | 81 | 1021.6 |
| 20260503110430 | 55 | 240 | 0.9 | 4.3 | 0.00 | 0.00 | 0.00 | 82 | 1020.5 |
| 20260503090428 | 56 | 241 | 0.9 | 1.7 | 0.00 | 0.00 | 0.00 | 81 | 1020.4 |
| 20260503081429 | 56 | 0 | 0.0 | 1.7 | 0.00 | 0.00 | 0.00 | 79 | 1020.2 |
| 20260503080928 | 56 | 0 | 0.0 | 1.7 | 0.00 | 0.00 | 0.00 | 79 | 1020.2 |
| 20260503080429 | 56 | 0 | 0.0 | 1.7 | 0.00 | 0.00 | 0.00 | 79 | 1020.2 |
| 20260503072929 | 57 | 251 | 0.9 | 2.6 | 0.00 | 0.00 | 0.00 | 78 | 1020.3 |
| 20260503072428 | 57 | 0 | 0.0 | 1.7 | 0.00 | 0.00 | 0.00 | 77 | 1020.3 |
| 20260503071929 | 57 | 0 | 0.0 | 1.7 | 0.00 | 0.00 | 0.00 | 77 | 1020.4 |
| 20260503071428 | 57 | 0 | 0.0 | 0.9 | 0.00 | 0.00 | 0.00 | 76 | 1020.4 |
| 20260503070929 | 57 | 0 | 0.0 | 3.5 | 0.00 | 0.00 | 0.00 | 76 | 1020.5 |
| 20260503070428 | 58 | 0 | 0.0 | 3.5 | 0.00 | 0.00 | 0.00 | 76 | 1020.6 |
| 20260503054929 | 59 | 0 | 0.0 | 0.0 | 0.00 | 0.00 | 0.00 | 72 | 1020.8 |
| 20260503054428 | 59 | 0 | 0.0 | 0.0 | 0.00 | 0.00 | 0.00 | 72 | 1020.8 |
| 20260503053930 | 59 | 0 | 0.0 | 0.0 | 0.00 | 0.00 | 0.00 | 72 | 1020.8 |
| 20260503053429 | 59 | 0 | 0.0 | 0.9 | 0.00 | 0.00 | 0.00 | 72 | 1020.8 |
| 20260503052929 | 59 | 0 | 0.0 | 1.7 | 0.00 | 0.00 | 0.00 | 72 | 1020.8 |
| 20260503052428 | 59 | 0 | 0.0 | 1.7 | 0.00 | 0.00 | 0.00 | 72 | 1020.8 |
| 20260503051929 | 59 | 0 | 0.0 | 0.0 | 0.00 | 0.00 | 0.00 | 72 | 1020.7 |
| 20260503051429 | 59 | 0 | 0.0 | 1.7 | 0.00 | 0.00 | 0.00 | 72 | 1020.7 |
| 20260503050929 | 59 | 0 | 0.0 | 1.7 | 0.00 | 0.00 | 0.00 | 72 | 1020.7 |
| 20260503050430 | 59 | 0 | 0.0 | 1.7 | 0.00 | 0.00 | 0.00 | 72 | 1020.6 |
| 20260503045930 | 59 | 0 | 0.0 | 0.9 | 0.00 | 0.00 | 0.00 | 72 | 1020.5 |
| 20260503045428 | 59 | 0 | 0.0 | 0.0 | 0.00 | 0.00 | 0.00 | 72 | 1020.5 |
| 20260503044929 | 59 | 0 | 0.0 | 1.7 | 0.00 | 0.00 | 0.00 | 72 | 1020.5 |
| 20260503044428 | 59 | 0 | 0.0 | 1.7 | 0.00 | 0.00 | 0.00 | 72 | 1020.5 |
| 20260503043430 | 59 | 0 | 0.0 | 0.9 | 0.00 | 0.00 | 0.00 | 72 | 1020.5 |
| 20260503042928 | 60 | 0 | 0.0 | 0.9 | 0.00 | 0.00 | 0.00 | 72 | 1020.5 |
| 20260503042430 | 60 | 0 | 0.0 | 0.0 | 0.00 | 0.00 | 0.00 | 72 | 1020.6 |
| 20260503041930 | 60 | 0 | 0.0 | 0.0 | 0.00 | 0.00 | 0.00 | 71 | 1020.5 |
| 20260503040929 | 60 | 0 | 0.0 | 0.0 | 0.00 | 0.00 | 0.00 | 71 | 1020.5 |
| 20260503035928 | 60 | 0 | 0.0 | 0.0 | 0.00 | 0.00 | 0.00 | 70 | 1020.4 |
| 20260503035429 | 60 | 0 | 0.0 | 0.0 | 0.00 | 0.00 | 0.00 | 70 | 1020.4 |
| 20260503034929 | 60 | 0 | 0.0 | 0.0 | 0.00 | 0.00 | 0.00 | 69 | 1020.4 |
| 20260503034428 | 60 | 0 | 0.0 | 0.0 | 0.00 | 0.00 | 0.00 | 69 | 1020.4 |
| 20260503033929 | 61 | 0 | 0.0 | 0.0 | 0.00 | 0.00 | 0.00 | 69 | 1020.5 |
| 20260503033429 | 61 | 0 | 0.0 | 0.0 | 0.00 | 0.00 | 0.00 | 68 | 1020.4 |
| 20260503032929 | 61 | 0 | 0.0 | 0.0 | 0.00 | 0.00 | 0.00 | 67 | 1020.4 |
| 20260503032429 | 61 | 0 | 0.0 | 0.0 | 0.00 | 0.00 | 0.00 | 67 | 1020.4 |
| 20260503031928 | 62 | 0 | 0.0 | 0.0 | 0.00 | 0.00 | 0.00 | 67 | 1020.4 |
| 20260503031429 | 62 | 0 | 0.0 | 0.0 | 0.00 | 0.00 | 0.00 | 67 | 1020.3 |
| 20260503030429 | 62 | 0 | 0.0 | 0.0 | 0.00 | 0.00 | 0.00 | 67 | 1020.2 |
| 20260503025929 | 62 | 0 | 0.0 | 0.0 | 0.00 | 0.00 | 0.00 | 65 | 1020.2 |
| 20260503025429 | 62 | 0 | 0.0 | 0.0 | 0.00 | 0.00 | 0.00 | 63 | 1020.1 |
| 20260503024429 | 62 | 0 | 0.0 | 0.0 | 0.00 | 0.00 | 0.00 | 60 | 1019.9 |
| 20260503023929 | 62 | 0 | 0.0 | 0.0 | 0.00 | 0.00 | 0.00 | 60 | 1019.9 |
| 20260503023428 | 63 | 0 | 0.0 | 0.0 | 0.00 | 0.00 | 0.00 | 59 | 1019.8 |
| 20260503022428 | 63 | 0 | 0.0 | 0.0 | 0.00 | 0.00 | 0.00 | 58 | 1019.8 |
| 20260503021929 | 63 | 0 | 0.0 | 0.0 | 0.00 | 0.00 | 0.00 | 55 | 1019.7 |
| 20260503021428 | 64 | 0 | 0.0 | 0.0 | 0.00 | 0.00 | 0.00 | 52 | 1019.7 |
| 20260503020929 | 64 | 0 | 0.0 | 0.0 | 0.00 | 0.00 | 0.00 | 52 | 1019.7 |
| 20260503020429 | 65 | 0 | 0.0 | 0.0 | 0.00 | 0.00 | 0.00 | 49 | 1019.7 |
| 20260503015929 | 65 | 0 | 0.0 | 0.0 | 0.00 | 0.00 | 0.00 | 49 | 1019.7 |
| 20260503015429 | 66 | 0 | 0.0 | 0.0 | 0.00 | 0.00 | 0.00 | 48 | 1019.5 |
| 20260503014929 | 66 | 0 | 0.0 | 0.0 | 0.00 | 0.00 | 0.00 | 48 | 1019.3 |
| 20260503014428 | 67 | 0 | 0.0 | 0.0 | 0.00 | 0.00 | 0.00 | 47 | 1019.4 |
| 20260503013929 | 68 | 0 | 0.0 | 0.0 | 0.00 | 0.00 | 0.00 | 46 | 1019.4 |
| 20260503013430 | 68 | 0 | 0.0 | 0.0 | 0.00 | 0.00 | 0.00 | 45 | 1019.4 |
| 20260503012930 | 69 | 0 | 0.0 | 0.0 | 0.00 | 0.00 | 0.00 | 44 | 1019.3 |
| 20260503012429 | 70 | 0 | 0.0 | 0.0 | 0.00 | 0.00 | 0.00 | 44 | 1019.3 |
| 20260503011929 | 70 | 0 | 0.0 | 0.0 | 0.00 | 0.00 | 0.00 | 44 | 1019.3 |
| 20260503011429 | 71 | 0 | 0.0 | 0.0 | 0.00 | 0.00 | 0.00 | 44 | 1019.3 |
| 20260503010429 | 72 | 0 | 0.0 | 0.0 | 0.00 | 0.00 | 0.00 | 43 | 1019.2 |
| 20260503005931 | 73 | 0 | 0.0 | 0.0 | 0.00 | 0.00 | 0.00 | 43 | 1019.3 |
| 20260503005429 | 73 | 0 | 0.0 | 0.0 | 0.00 | 0.00 | 0.00 | 43 | 1019.3 |
| 20260503004929 | 74 | 0 | 0.0 | 0.0 | 0.00 | 0.00 | 0.00 | 43 | 1019.3 |
| 20260503004428 | 74 | 0 | 0.0 | 0.0 | 0.00 | 0.00 | 0.00 | 42 | 1019.2 |
| 20260503003929 | 75 | 0 | 0.0 | 0.0 | 0.00 | 0.00 | 0.00 | 41 | 1019.2 |
| 20260503002929 | 76 | 0 | 0.0 | 0.0 | 0.00 | 0.00 | 0.00 | 43 | 1019.2 |
| 20260503001929 | 76 | 0 | 0.0 | 0.0 | 0.00 | 0.00 | 0.00 | 42 | 1019.1 |
| 20260503001428 | 76 | 0 | 0.0 | 0.0 | 0.00 | 0.00 | 0.00 | 43 | 1019.1 |